sensor_id;sensor_type;location;lat;lon;timestamp;pressure;altitude;pressure_sealevel;temperature;humidity
76022;BME280;64718;52.124;6.226;2023-04-15T00:01:57;100888.69;;;6.10;84.19
76022;BME280;64718;52.124;6.226;2023-04-15T00:04:24;100892.13;;;6.11;84.93
76022;BME280;64718;52.124;6.226;2023-04-15T00:06:52;100895.59;;;6.10;84.72
76022;BME280;64718;52.124;6.226;2023-04-15T00:09:19;100893.09;;;6.07;85.22
76022;BME280;64718;52.124;6.226;2023-04-15T00:11:47;100899.06;;;6.09;85.05
76022;BME280;64718;52.124;6.226;2023-04-15T00:14:13;100896.56;;;6.06;85.12
76022;BME280;64718;52.124;6.226;2023-04-15T00:16:40;100894.81;;;6.06;85.80
76022;BME280;64718;52.124;6.226;2023-04-15T00:19:07;100901.78;;;6.02;86.49
76022;BME280;64718;52.124;6.226;2023-04-15T00:21:33;100898.47;;;5.97;86.90
76022;BME280;64718;52.124;6.226;2023-04-15T00:24:02;100901.09;;;5.96;86.90
76022;BME280;64718;52.124;6.226;2023-04-15T00:26:28;100896.72;;;5.98;87.37
76022;BME280;64718;52.124;6.226;2023-04-15T00:28:55;100896.50;;;6.07;87.14
76022;BME280;64718;52.124;6.226;2023-04-15T00:31:22;100901.78;;;6.02;87.85
76022;BME280;64718;52.124;6.226;2023-04-15T00:33:48;100900.13;;;6.00;87.94
76022;BME280;64718;52.124;6.226;2023-04-15T00:36:15;100905.44;;;5.94;88.15
76022;BME280;64718;52.124;6.226;2023-04-15T00:38:41;100911.41;;;5.96;88.37
76022;BME280;64718;52.124;6.226;2023-04-15T00:41:10;100912.31;;;5.93;88.47
76022;BME280;64718;52.124;6.226;2023-04-15T00:43:37;100902.06;;;5.90;88.99
76022;BME280;64718;52.124;6.226;2023-04-15T00:46:04;100909.03;;;5.85;89.11
76022;BME280;64718;52.124;6.226;2023-04-15T00:48:31;100910.91;;;5.79;89.97
76022;BME280;64718;52.124;6.226;2023-04-15T00:50:58;100906.63;;;5.76;90.74
76022;BME280;64718;52.124;6.226;2023-04-15T00:53:24;100908.31;;;5.77;90.70
76022;BME280;64718;52.124;6.226;2023-04-15T00:55:51;100899.66;;;5.81;91.31
76022;BME280;64718;52.124;6.226;2023-04-15T00:58:19;100908.19;;;5.85;91.82
76022;BME280;64718;52.124;6.226;2023-04-15T01:00:46;100910.66;;;5.91;91.40
76022;BME280;64718;52.124;6.226;2023-04-15T01:03:13;100901.22;;;5.88;91.82
76022;BME280;64718;52.124;6.226;2023-04-15T01:05:40;100899.69;;;5.80;91.96
76022;BME280;64718;52.124;6.226;2023-04-15T01:08:07;100898.03;;;5.76;92.20
76022;BME280;64718;52.124;6.226;2023-04-15T01:10:34;100900.78;;;5.68;92.58
76022;BME280;64718;52.124;6.226;2023-04-15T01:13:01;100897.56;;;5.58;93.53
76022;BME280;64718;52.124;6.226;2023-04-15T01:15:29;100901.22;;;5.48;93.89
76022;BME280;64718;52.124;6.226;2023-04-15T01:17:57;100898.72;;;5.44;94.13
76022;BME280;64718;52.124;6.226;2023-04-15T01:20:24;100900.50;;;5.42;95.15
76022;BME280;64718;52.124;6.226;2023-04-15T01:22:53;100906.56;;;5.39;95.82
76022;BME280;64718;52.124;6.226;2023-04-15T01:25:27;100903.06;;;5.42;95.91
76022;BME280;64718;52.124;6.226;2023-04-15T01:27:57;100905.75;;;5.37;96.05
76022;BME280;64718;52.124;6.226;2023-04-15T01:30:24;100916.88;;;5.39;95.90
76022;BME280;64718;52.124;6.226;2023-04-15T01:32:51;100911.81;;;5.34;97.21
76022;BME280;64718;52.124;6.226;2023-04-15T01:35:18;100912.78;;;5.29;96.65
76022;BME280;64718;52.124;6.226;2023-04-15T01:37:45;100911.94;;;5.28;97.45
76022;BME280;64718;52.124;6.226;2023-04-15T01:40:12;100910.13;;;5.33;98.42
76022;BME280;64718;52.124;6.226;2023-04-15T01:42:41;100912.69;;;5.33;97.44
76022;BME280;64718;52.124;6.226;2023-04-15T01:45:08;100913.53;;;5.34;98.10
76022;BME280;64718;52.124;6.226;2023-04-15T01:47:35;100915.28;;;5.33;97.75
76022;BME280;64718;52.124;6.226;2023-04-15T01:50:01;100911.75;;;5.37;98.35
76022;BME280;64718;52.124;6.226;2023-04-15T01:52:28;100902.25;;;5.39;98.19
76022;BME280;64718;52.124;6.226;2023-04-15T01:54:55;100914.22;;;5.42;97.72
76022;BME280;64718;52.124;6.226;2023-04-15T01:57:21;100917.72;;;5.39;98.36
76022;BME280;64718;52.124;6.226;2023-04-15T01:59:49;100919.50;;;5.37;98.42
76022;BME280;64718;52.124;6.226;2023-04-15T02:02:16;100925.63;;;5.32;98.06
76022;BME280;64718;52.124;6.226;2023-04-15T02:04:42;100919.66;;;5.28;99.69
76022;BME280;64718;52.124;6.226;2023-04-15T02:07:09;100917.97;;;5.27;99.36
76022;BME280;64718;52.124;6.226;2023-04-15T02:09:36;100924.13;;;5.20;99.20
76022;BME280;64718;52.124;6.226;2023-04-15T02:12:03;100928.41;;;5.20;100.00
76022;BME280;64718;52.124;6.226;2023-04-15T02:14:29;100929.19;;;5.25;100.00
76022;BME280;64718;52.124;6.226;2023-04-15T02:16:57;100927.50;;;5.24;100.00
76022;BME280;64718;52.124;6.226;2023-04-15T02:19:31;100932.81;;;5.13;100.00
76022;BME280;64718;52.124;6.226;2023-04-15T02:21:57;100926.88;;;5.09;100.00
76022;BME280;64718;52.124;6.226;2023-04-15T02:24:24;100940.59;;;5.12;100.00
76022;BME280;64718;52.124;6.226;2023-04-15T02:26:50;100937.28;;;5.05;100.00
76022;BME280;64718;52.124;6.226;2023-04-15T02:29:17;100937.28;;;5.05;100.00
76022;BME280;64718;52.124;6.226;2023-04-15T02:31:43;100943.19;;;5.10;100.00
76022;BME280;64718;52.124;6.226;2023-04-15T02:34:11;100938.88;;;5.11;100.00
76022;BME280;64718;52.124;6.226;2023-04-15T02:36:38;100946.75;;;5.04;100.00
76022;BME280;64718;52.124;6.226;2023-04-15T02:39:05;100945.06;;;5.02;100.00
76022;BME280;64718;52.124;6.226;2023-04-15T02:41:32;100951.16;;;4.98;100.00
76022;BME280;64718;52.124;6.226;2023-04-15T02:43:58;100951.22;;;4.95;100.00
76022;BME280;64718;52.124;6.226;2023-04-15T02:46:25;100948.75;;;4.89;100.00
76022;BME280;64718;52.124;6.226;2023-04-15T02:48:51;100953.09;;;4.85;100.00
76022;BME280;64718;52.124;6.226;2023-04-15T02:51:21;100954.06;;;4.80;100.00
76022;BME280;64718;52.124;6.226;2023-04-15T02:53:48;100963.56;;;4.76;100.00
76022;BME280;64718;52.124;6.226;2023-04-15T02:56:15;100965.22;;;4.80;100.00
76022;BME280;64718;52.124;6.226;2023-04-15T02:58:43;100965.25;;;4.79;100.00
76022;BME280;64718;52.124;6.226;2023-04-15T03:01:10;100966.16;;;4.76;100.00
76022;BME280;64718;52.124;6.226;2023-04-15T03:03:36;100966.19;;;4.73;100.00
76022;BME280;64718;52.124;6.226;2023-04-15T03:06:03;100966.28;;;4.68;100.00
76022;BME280;64718;52.124;6.226;2023-04-15T03:08:31;100964.56;;;4.67;100.00
76022;BME280;64718;52.124;6.226;2023-04-15T03:10:57;100961.94;;;4.70;100.00
76022;BME280;64718;52.124;6.226;2023-04-15T03:13:25;100969.69;;;4.70;100.00
76022;BME280;64718;52.124;6.226;2023-04-15T03:15:51;100968.84;;;4.68;100.00
76022;BME280;64718;52.124;6.226;2023-04-15T03:18:18;100972.38;;;4.61;100.00
76022;BME280;64718;52.124;6.226;2023-04-15T03:20:44;100975.78;;;4.62;100.00
76022;BME280;64718;52.124;6.226;2023-04-15T03:23:11;100973.28;;;4.57;100.00
76022;BME280;64718;52.124;6.226;2023-04-15T03:25:39;100971.59;;;4.56;100.00
76022;BME280;64718;52.124;6.226;2023-04-15T03:28:05;100975.91;;;4.56;100.00
76022;BME280;64718;52.124;6.226;2023-04-15T03:30:32;100977.59;;;4.57;100.00
76022;BME280;64718;52.124;6.226;2023-04-15T03:32:58;100981.91;;;4.55;100.00
76022;BME280;64718;52.124;6.226;2023-04-15T03:35:25;100982.84;;;4.51;100.00
76022;BME280;64718;52.124;6.226;2023-04-15T03:37:51;100986.34;;;4.47;100.00
76022;BME280;64718;52.124;6.226;2023-04-15T03:40:19;100988.94;;;4.45;100.00
76022;BME280;64718;52.124;6.226;2023-04-15T03:42:47;100986.41;;;4.42;100.00
76022;BME280;64718;52.124;6.226;2023-04-15T03:45:14;100984.78;;;4.36;100.00
76022;BME280;64718;52.124;6.226;2023-04-15T03:47:40;100994.22;;;4.36;100.00
76022;BME280;64718;52.124;6.226;2023-04-15T03:50:07;100989.97;;;4.35;100.00
76022;BME280;64718;52.124;6.226;2023-04-15T03:52:34;100993.38;;;4.35;100.00
76022;BME280;64718;52.124;6.226;2023-04-15T03:55:00;101000.31;;;4.32;100.00
76022;BME280;64718;52.124;6.226;2023-04-15T03:57:27;101008.78;;;4.38;100.00
76022;BME280;64718;52.124;6.226;2023-04-15T03:59:55;101002.78;;;4.38;100.00
76022;BME280;64718;52.124;6.226;2023-04-15T04:02:21;101011.34;;;4.40;100.00
76022;BME280;64718;52.124;6.226;2023-04-15T04:04:48;101017.44;;;4.33;100.00
76022;BME280;64718;52.124;6.226;2023-04-15T04:07:15;101013.22;;;4.29;100.00
76022;BME280;64718;52.124;6.226;2023-04-15T04:09:41;101009.81;;;4.27;100.00
76022;BME280;64718;52.124;6.226;2023-04-15T04:12:08;101013.16;;;4.33;100.00
76022;BME280;64718;52.124;6.226;2023-04-15T04:14:34;101023.50;;;4.29;100.00
76022;BME280;64718;52.124;6.226;2023-04-15T04:17:02;101023.56;;;4.26;100.00
76022;BME280;64718;52.124;6.226;2023-04-15T04:19:29;101023.56;;;4.26;100.00
76022;BME280;64718;52.124;6.226;2023-04-15T04:21:55;101026.09;;;4.27;100.00
76022;BME280;64718;52.124;6.226;2023-04-15T04:24:22;101024.47;;;4.22;100.00
76022;BME280;64718;52.124;6.226;2023-04-15T04:26:48;101026.19;;;4.21;100.00
76022;BME280;64718;52.124;6.226;2023-04-15T04:29:15;101034.84;;;4.16;100.00
76022;BME280;64718;52.124;6.226;2023-04-15T04:31:41;101042.50;;;4.20;100.00
76022;BME280;64718;52.124;6.226;2023-04-15T04:34:09;101045.94;;;4.21;100.00
76022;BME280;64718;52.124;6.226;2023-04-15T04:36:36;101050.19;;;4.23;100.00
76022;BME280;64718;52.124;6.226;2023-04-15T04:39:02;101057.81;;;4.31;100.00
76022;BME280;64718;52.124;6.226;2023-04-15T04:41:29;101059.50;;;4.33;100.00
76022;BME280;64718;52.124;6.226;2023-04-15T04:43:56;101060.34;;;4.34;100.00
76022;BME280;64718;52.124;6.226;2023-04-15T04:46:23;101059.44;;;4.36;100.00
76022;BME280;64718;52.124;6.226;2023-04-15T04:48:49;101061.97;;;4.39;100.00
76022;BME280;64718;52.124;6.226;2023-04-15T04:51:17;101069.66;;;4.44;100.00
76022;BME280;64718;52.124;6.226;2023-04-15T04:53:44;101066.19;;;4.47;100.00
76022;BME280;64718;52.124;6.226;2023-04-15T04:56:10;101061.81;;;4.52;100.00
76022;BME280;64718;52.124;6.226;2023-04-15T04:58:37;101063.50;;;4.53;100.00
76022;BME280;64718;52.124;6.226;2023-04-15T05:01:03;101066.94;;;4.53;100.00
76022;BME280;64718;52.124;6.226;2023-04-15T05:03:30;101072.97;;;4.52;100.00
76022;BME280;64718;52.124;6.226;2023-04-15T05:05:56;101078.09;;;4.54;100.00
76022;BME280;64718;52.124;6.226;2023-04-15T05:08:24;101073.81;;;4.53;100.00
76022;BME280;64718;52.124;6.226;2023-04-15T05:10:51;101075.50;;;4.54;100.00
76022;BME280;64718;52.124;6.226;2023-04-15T05:13:17;101077.19;;;4.56;100.00
76022;BME280;64718;52.124;6.226;2023-04-15T05:15:45;101078.84;;;4.60;100.00
76022;BME280;64718;52.124;6.226;2023-04-15T05:18:12;101083.06;;;4.67;100.00
76022;BME280;64718;52.124;6.226;2023-04-15T05:20:38;101083.84;;;4.74;100.00
76022;BME280;64718;52.124;6.226;2023-04-15T05:23:05;101087.19;;;4.79;100.00
76022;BME280;64718;52.124;6.226;2023-04-15T05:25:33;101088.78;;;4.88;100.00
76022;BME280;64718;52.124;6.226;2023-04-15T05:28:00;101099.88;;;4.93;100.00
76022;BME280;64718;52.124;6.226;2023-04-15T05:30:26;101098.00;;;5.02;100.00
76022;BME280;64718;52.124;6.226;2023-04-15T05:32:52;101100.41;;;5.12;100.00
76022;BME280;64718;52.124;6.226;2023-04-15T05:35:19;101102.00;;;5.22;100.00
76022;BME280;64718;52.124;6.226;2023-04-15T05:37:45;101101.81;;;5.32;100.00
76022;BME280;64718;52.124;6.226;2023-04-15T05:40:12;101106.44;;;5.63;100.00
76022;BME280;64718;52.124;6.226;2023-04-15T05:42:41;101104.00;;;6.05;100.00
76022;BME280;64718;52.124;6.226;2023-04-15T05:45:07;101107.50;;;6.44;100.00
76022;BME280;64718;52.124;6.226;2023-04-15T05:47:34;101107.34;;;6.51;100.00
76022;BME280;64718;52.124;6.226;2023-04-15T05:50:01;101112.63;;;6.84;100.00
76022;BME280;64718;52.124;6.226;2023-04-15T05:52:28;101113.66;;;7.49;98.88
76022;BME280;64718;52.124;6.226;2023-04-15T05:54:55;101125.22;;;7.70;95.97
76022;BME280;64718;52.124;6.226;2023-04-15T05:57:21;101130.81;;;7.86;95.55
76022;BME280;64718;52.124;6.226;2023-04-15T05:59:49;101130.19;;;8.09;92.67
76022;BME280;64718;52.124;6.226;2023-04-15T06:02:17;101131.47;;;8.56;90.92
76022;BME280;64718;52.124;6.226;2023-04-15T06:04:43;101123.28;;;8.71;88.46
76022;BME280;64718;52.124;6.226;2023-04-15T06:07:10;101136.19;;;9.01;86.98
76022;BME280;64718;52.124;6.226;2023-04-15T06:09:37;101141.84;;;9.13;86.16
76022;BME280;64718;52.124;6.226;2023-04-15T06:12:03;101150.91;;;9.00;86.13
76022;BME280;64718;52.124;6.226;2023-04-15T06:14:31;101154.34;;;9.01;86.49
76022;BME280;64718;52.124;6.226;2023-04-15T06:16:58;101155.03;;;8.48;88.20
76022;BME280;64718;52.124;6.226;2023-04-15T06:19:25;101159.56;;;8.42;88.46
76022;BME280;64718;52.124;6.226;2023-04-15T06:21:51;101169.00;;;8.12;90.47
76022;BME280;64718;52.124;6.226;2023-04-15T06:24:18;101168.53;;;7.96;91.14
76022;BME280;64718;52.124;6.226;2023-04-15T06:26:45;101165.59;;;7.77;93.06
76022;BME280;64718;52.124;6.226;2023-04-15T06:29:11;101178.81;;;7.67;94.14
76022;BME280;64718;52.124;6.226;2023-04-15T06:31:38;101179.16;;;7.53;94.17
76022;BME280;64718;52.124;6.226;2023-04-15T06:34:06;101186.00;;;7.55;94.97
76022;BME280;64718;52.124;6.226;2023-04-15T06:36:33;101191.28;;;7.49;95.32
76022;BME280;64718;52.124;6.226;2023-04-15T06:38:59;101192.25;;;7.45;96.41
76022;BME280;64718;52.124;6.226;2023-04-15T06:41:26;101205.88;;;7.53;96.69
76022;BME280;64718;52.124;6.226;2023-04-15T06:43:53;101203.22;;;7.56;96.04
76022;BME280;64718;52.124;6.226;2023-04-15T06:46:19;101207.13;;;7.73;96.14
76022;BME280;64718;52.124;6.226;2023-04-15T06:48:46;101206.66;;;7.91;94.79
76022;BME280;64718;52.124;6.226;2023-04-15T06:51:14;101210.09;;;8.25;93.56
76022;BME280;64718;52.124;6.226;2023-04-15T06:53:41;101216.56;;;8.42;92.54
76022;BME280;64718;52.124;6.226;2023-04-15T06:56:08;101213.69;;;8.52;91.44
76022;BME280;64718;52.124;6.226;2023-04-15T06:58:35;101210.38;;;8.78;90.32
76022;BME280;64718;52.124;6.226;2023-04-15T07:01:01;101213.53;;;8.88;89.68
76022;BME280;64718;52.124;6.226;2023-04-15T07:03:28;101226.28;;;8.65;90.07
76022;BME280;64718;52.124;6.226;2023-04-15T07:05:55;101227.44;;;8.54;90.38
76022;BME280;64718;52.124;6.226;2023-04-15T07:08:23;101229.53;;;8.42;92.01
76022;BME280;64718;52.124;6.226;2023-04-15T07:10:49;101231.44;;;8.66;91.62
76022;BME280;64718;52.124;6.226;2023-04-15T07:13:16;101231.75;;;8.86;90.03
76022;BME280;64718;52.124;6.226;2023-04-15T07:15:43;101226.47;;;8.90;89.87
76022;BME280;64718;52.124;6.226;2023-04-15T07:18:10;101239.66;;;8.82;90.08
76022;BME280;64718;52.124;6.226;2023-04-15T07:20:37;101236.06;;;8.86;90.23
76022;BME280;64718;52.124;6.226;2023-04-15T07:23:04;101236.06;;;8.86;90.00
76022;BME280;64718;52.124;6.226;2023-04-15T07:25:32;101242.91;;;8.88;89.07
76022;BME280;64718;52.124;6.226;2023-04-15T07:27:58;101239.09;;;9.00;88.78
76022;BME280;64718;52.124;6.226;2023-04-15T07:30:25;101246.63;;;9.09;88.35
76022;BME280;64718;52.124;6.226;2023-04-15T07:32:51;101242.84;;;9.19;87.91
76022;BME280;64718;52.124;6.226;2023-04-15T07:35:18;101239.66;;;9.39;86.82
76022;BME280;64718;52.124;6.226;2023-04-15T07:37:46;101234.31;;;9.44;86.87
76022;BME280;64718;52.124;6.226;2023-04-15T07:40:12;101235.13;;;9.72;85.43
76022;BME280;64718;52.124;6.226;2023-04-15T07:42:41;101232.22;;;10.08;83.58
76022;BME280;64718;52.124;6.226;2023-04-15T07:45:09;101240.28;;;10.00;83.37
76022;BME280;64718;52.124;6.226;2023-04-15T07:47:35;101242.31;;;10.17;82.81
76022;BME280;64718;52.124;6.226;2023-04-15T07:50:02;101247.16;;;10.53;80.50
76022;BME280;64718;52.124;6.226;2023-04-15T07:52:28;101244.59;;;10.99;79.79
76022;BME280;64718;52.124;6.226;2023-04-15T07:54:55;101245.25;;;11.04;78.19
76022;BME280;64718;52.124;6.226;2023-04-15T07:57:21;101243.75;;;11.43;76.89
76022;BME280;64718;52.124;6.226;2023-04-15T07:59:49;101252.06;;;11.52;76.06
76022;BME280;64718;52.124;6.226;2023-04-15T08:02:16;101254.50;;;11.35;75.96
76022;BME280;64718;52.124;6.226;2023-04-15T08:04:43;101260.44;;;11.60;75.47
76022;BME280;64718;52.124;6.226;2023-04-15T08:07:09;101267.44;;;11.15;76.51
76022;BME280;64718;52.124;6.226;2023-04-15T08:09:36;101270.03;;;10.91;77.92
76022;BME280;64718;52.124;6.226;2023-04-15T08:12:02;101262.03;;;10.96;78.60
76022;BME280;64718;52.124;6.226;2023-04-15T08:14:29;101272.03;;;11.08;78.24
76022;BME280;64718;52.124;6.226;2023-04-15T08:16:57;101271.66;;;10.94;77.19
76022;BME280;64718;52.124;6.226;2023-04-15T08:19:23;101271.50;;;10.75;78.65
76022;BME280;64718;52.124;6.226;2023-04-15T08:21:50;101279.97;;;10.57;79.80
76022;BME280;64718;52.124;6.226;2023-04-15T08:24:17;101269.44;;;10.60;78.44
76022;BME280;64718;52.124;6.226;2023-04-15T08:26:43;101282.06;;;10.70;78.92
76022;BME280;64718;52.124;6.226;2023-04-15T08:29:11;101288.00;;;10.99;77.16
76022;BME280;64718;52.124;6.226;2023-04-15T08:31:37;101278.34;;;10.77;78.77
76022;BME280;64718;52.124;6.226;2023-04-15T08:34:05;101283.72;;;10.96;77.65
76022;BME280;64718;52.124;6.226;2023-04-15T08:36:32;101281.81;;;11.01;77.87
76022;BME280;64718;52.124;6.226;2023-04-15T08:38:58;101290.38;;;11.05;77.30
76022;BME280;64718;52.124;6.226;2023-04-15T08:41:25;101293.63;;;11.10;77.43
76022;BME280;64718;52.124;6.226;2023-04-15T08:43:53;101294.19;;;10.95;77.46
76022;BME280;64718;52.124;6.226;2023-04-15T08:46:22;101302.09;;;10.92;77.69
76022;BME280;64718;52.124;6.226;2023-04-15T08:48:49;101297.34;;;10.80;78.63
76022;BME280;64718;52.124;6.226;2023-04-15T08:51:17;101312.75;;;10.86;79.09
76022;BME280;64718;52.124;6.226;2023-04-15T08:53:44;101303.59;;;10.99;78.17
76022;BME280;64718;52.124;6.226;2023-04-15T08:56:13;101301.03;;;11.21;77.16
76022;BME280;64718;52.124;6.226;2023-04-15T08:58:40;101292.88;;;11.52;75.56
76022;BME280;64718;52.124;6.226;2023-04-15T09:01:07;101306.28;;;11.43;75.72
76022;BME280;64718;52.124;6.226;2023-04-15T09:03:34;101311.19;;;11.50;74.23
76022;BME280;64718;52.124;6.226;2023-04-15T09:06:03;101316.41;;;11.50;75.01
76022;BME280;64718;52.124;6.226;2023-04-15T09:08:31;101319.00;;;11.50;74.64
76022;BME280;64718;52.124;6.226;2023-04-15T09:10:58;101312.44;;;11.85;73.41
76022;BME280;64718;52.124;6.226;2023-04-15T09:13:25;101320.03;;;11.91;73.07
76022;BME280;64718;52.124;6.226;2023-04-15T09:15:52;101319.81;;;11.74;74.35
76022;BME280;64718;52.124;6.226;2023-04-15T09:18:30;101325.44;;;12.29;72.17
76022;BME280;64718;52.124;6.226;2023-04-15T09:21:03;101326.69;;;12.41;72.25
76022;BME280;64718;52.124;6.226;2023-04-15T09:23:32;101324.56;;;12.69;71.02
76022;BME280;64718;52.124;6.226;2023-04-15T09:25:59;101326.03;;;12.76;69.35
76022;BME280;64718;52.124;6.226;2023-04-15T09:28:26;101335.19;;;13.05;70.35
76022;BME280;64718;52.124;6.226;2023-04-15T09:30:55;101333.63;;;13.01;70.51
76022;BME280;64718;52.124;6.226;2023-04-15T09:33:22;101343.13;;;12.83;70.03
76022;BME280;64718;52.124;6.226;2023-04-15T09:35:59;101344.38;;;12.75;70.75
76022;BME280;64718;52.124;6.226;2023-04-15T09:38:26;101348.06;;;12.28;70.85
76022;BME280;64718;52.124;6.226;2023-04-15T09:40:54;101335.03;;;12.07;72.12
76022;BME280;64718;52.124;6.226;2023-04-15T09:43:21;101355.13;;;12.04;72.96
76022;BME280;64718;52.124;6.226;2023-04-15T09:45:49;101355.38;;;12.20;71.48
76022;BME280;64718;52.124;6.226;2023-04-15T09:48:18;101357.97;;;12.20;72.50
76022;BME280;64718;52.124;6.226;2023-04-15T09:50:46;101363.84;;;12.25;72.67
76022;BME280;64718;52.124;6.226;2023-04-15T09:53:16;101352.84;;;11.73;73.02
76022;BME280;64718;52.124;6.226;2023-04-15T09:55:45;101363.91;;;12.02;72.51
76022;BME280;64718;52.124;6.226;2023-04-15T09:58:18;101373.81;;;12.16;70.11
76022;BME280;64718;52.124;6.226;2023-04-15T10:00:46;101359.28;;;12.09;70.00
76022;BME280;64718;52.124;6.226;2023-04-15T10:03:15;101369.09;;;12.46;69.29
76022;BME280;64718;52.124;6.226;2023-04-15T10:05:44;101373.31;;;12.48;68.80
76022;BME280;64718;52.124;6.226;2023-04-15T10:08:11;101371.69;;;12.46;70.29
76022;BME280;64718;52.124;6.226;2023-04-15T10:10:38;101369.31;;;12.19;72.01
76022;BME280;64718;52.124;6.226;2023-04-15T10:13:05;101374.16;;;12.28;71.28
76022;BME280;64718;52.124;6.226;2023-04-15T10:15:34;101375.53;;;12.37;72.61
76022;BME280;64718;52.124;6.226;2023-04-15T10:18:04;101381.72;;;12.13;72.35
76022;BME280;64718;52.124;6.226;2023-04-15T10:20:32;101384.66;;;12.27;73.50
76022;BME280;64718;52.124;6.226;2023-04-15T10:23:00;101384.25;;;12.16;72.95
76022;BME280;64718;52.124;6.226;2023-04-15T10:25:28;101377.28;;;12.37;72.86
76022;BME280;64718;52.124;6.226;2023-04-15T10:27:56;101381.91;;;12.30;72.34
76022;BME280;64718;52.124;6.226;2023-04-15T10:30:23;101385.44;;;12.29;73.53
76022;BME280;64718;52.124;6.226;2023-04-15T10:32:52;101381.53;;;12.39;70.11
76022;BME280;64718;52.124;6.226;2023-04-15T10:35:20;101385.13;;;12.37;70.85
76022;BME280;64718;52.124;6.226;2023-04-15T10:37:47;101377.75;;;12.46;70.21
76022;BME280;64718;52.124;6.226;2023-04-15T10:40:25;101389.56;;;12.55;70.65
76022;BME280;64718;52.124;6.226;2023-04-15T10:42:53;101395.84;;;12.71;69.54
76022;BME280;64718;52.124;6.226;2023-04-15T10:45:20;101385.47;;;12.49;69.55
76022;BME280;64718;52.124;6.226;2023-04-15T10:47:53;101389.38;;;12.39;69.06
76022;BME280;64718;52.124;6.226;2023-04-15T10:50:20;101386.13;;;12.54;69.13
76022;BME280;64718;52.124;6.226;2023-04-15T10:52:49;101388.91;;;12.50;67.45
76022;BME280;64718;52.124;6.226;2023-04-15T10:55:18;101390.53;;;12.52;69.86
76022;BME280;64718;52.124;6.226;2023-04-15T10:57:46;101403.44;;;12.77;69.63
76022;BME280;64718;52.124;6.226;2023-04-15T11:00:16;101398.72;;;12.85;68.56
76022;BME280;64718;52.124;6.226;2023-04-15T11:02:46;101396.16;;;13.24;67.78
76022;BME280;64718;52.124;6.226;2023-04-15T11:05:16;101396.81;;;13.09;66.33
76022;BME280;64718;52.124;6.226;2023-04-15T11:07:51;101392.50;;;12.67;67.30
76022;BME280;64718;52.124;6.226;2023-04-15T11:10:52;101400.28;;;12.89;67.65
76022;BME280;64718;52.124;6.226;2023-04-15T11:13:27;101403.09;;;13.05;67.13
76022;BME280;64718;52.124;6.226;2023-04-15T11:15:57;101395.19;;;13.07;67.62
76022;BME280;64718;52.124;6.226;2023-04-15T11:18:27;101396.34;;;13.40;66.51
76022;BME280;64718;52.124;6.226;2023-04-15T11:20:58;101407.28;;;13.48;65.59
76022;BME280;64718;52.124;6.226;2023-04-15T11:23:31;101407.31;;;13.28;64.82
76022;BME280;64718;52.124;6.226;2023-04-15T11:25:59;101411.25;;;13.18;65.20
76022;BME280;64718;52.124;6.226;2023-04-15T11:28:26;101410.59;;;13.33;62.96
76022;BME280;64718;52.124;6.226;2023-04-15T11:30:53;101406.66;;;13.43;63.73
76022;BME280;64718;52.124;6.226;2023-04-15T11:33:21;101413.31;;;13.10;65.11
76022;BME280;64718;52.124;6.226;2023-04-15T11:35:48;101414.00;;;12.94;66.05
76022;BME280;64718;52.124;6.226;2023-04-15T11:38:16;101425.88;;;13.22;66.39
76022;BME280;64718;52.124;6.226;2023-04-15T11:40:43;101433.84;;;12.98;66.34
76022;BME280;64718;52.124;6.226;2023-04-15T11:43:11;101421.16;;;13.10;66.51
76022;BME280;64718;52.124;6.226;2023-04-15T11:45:47;101420.03;;;13.15;65.34
76022;BME280;64718;52.124;6.226;2023-04-15T11:48:14;101430.69;;;12.70;68.05
76022;BME280;64718;52.124;6.226;2023-04-15T11:50:40;101427.06;;;12.74;68.90
76022;BME280;64718;52.124;6.226;2023-04-15T11:53:08;101430.56;;;13.14;68.05
76022;BME280;64718;52.124;6.226;2023-04-15T11:55:44;101440.63;;;13.23;66.35
76022;BME280;64718;52.124;6.226;2023-04-15T11:58:13;101445.66;;;13.48;66.07
76022;BME280;64718;52.124;6.226;2023-04-15T12:00:41;101435.66;;;12.96;67.32
76022;BME280;64718;52.124;6.226;2023-04-15T12:03:21;101437.19;;;12.60;68.08
76022;BME280;64718;52.124;6.226;2023-04-15T12:06:18;101442.94;;;12.68;66.74
76022;BME280;64718;52.124;6.226;2023-04-15T12:09:07;101446.34;;;12.70;68.35
76022;BME280;64718;52.124;6.226;2023-04-15T12:11:43;101455.28;;;12.64;70.34
76022;BME280;64718;52.124;6.226;2023-04-15T12:14:17;101461.19;;;12.26;70.52
76022;BME280;64718;52.124;6.226;2023-04-15T12:16:45;101460.41;;;12.46;69.47
76022;BME280;64718;52.124;6.226;2023-04-15T12:19:14;101460.38;;;12.67;69.40
76022;BME280;64718;52.124;6.226;2023-04-15T12:21:44;101468.19;;;12.67;68.03
76022;BME280;64718;52.124;6.226;2023-04-15T12:24:11;101471.53;;;12.71;66.95
76022;BME280;64718;52.124;6.226;2023-04-15T12:26:44;101469.69;;;12.53;68.29
76022;BME280;64718;52.124;6.226;2023-04-15T12:29:12;101477.09;;;12.20;70.29
76022;BME280;64718;52.124;6.226;2023-04-15T12:31:49;101477.47;;;12.32;69.71
76022;BME280;64718;52.124;6.226;2023-04-15T12:34:17;101484.78;;;12.45;69.91
76022;BME280;64718;52.124;6.226;2023-04-15T12:36:44;101484.03;;;12.63;67.93
76022;BME280;64718;52.124;6.226;2023-04-15T12:39:11;101473.63;;;12.41;68.83
76022;BME280;64718;52.124;6.226;2023-04-15T12:41:37;101493.59;;;12.42;69.71
76022;BME280;64718;52.124;6.226;2023-04-15T12:44:06;101499.41;;;12.49;69.20
76022;BME280;64718;52.124;6.226;2023-04-15T12:46:32;101484.72;;;12.68;69.21
76022;BME280;64718;52.124;6.226;2023-04-15T12:48:59;101497.59;;;12.73;68.89
76022;BME280;64718;52.124;6.226;2023-04-15T12:51:25;101493.16;;;12.53;69.51
76022;BME280;64718;52.124;6.226;2023-04-15T12:53:52;101498.94;;;12.17;69.00
76022;BME280;64718;52.124;6.226;2023-04-15T12:56:19;101496.31;;;12.17;69.88